createdAt,value
2022-07-31T00:00:48.905Z,21.50
2022-07-31T00:03:15.851Z,21.50
2022-07-31T00:05:42.762Z,21.50
2022-07-31T00:08:09.887Z,21.50
2022-07-31T00:10:36.810Z,21.50
2022-07-31T00:13:03.642Z,21.40
2022-07-31T00:15:30.387Z,21.40
2022-07-31T00:17:58.039Z,21.40
2022-07-31T00:20:24.896Z,21.40
2022-07-31T00:22:51.637Z,21.30
2022-07-31T00:25:18.915Z,21.30
2022-07-31T00:27:45.862Z,21.30
2022-07-31T00:30:13.481Z,21.30
2022-07-31T00:32:41.653Z,21.30
2022-07-31T00:35:09.017Z,21.20
2022-07-31T00:37:37.871Z,21.30
2022-07-31T00:40:07.862Z,21.20
2022-07-31T00:42:34.731Z,21.10
2022-07-31T00:45:01.762Z,21.10
2022-07-31T00:47:28.653Z,21.10
2022-07-31T00:49:56.809Z,21.00
2022-07-31T00:52:23.850Z,21.00
2022-07-31T00:54:50.585Z,21.00
2022-07-31T00:57:17.426Z,21.00
2022-07-31T00:59:44.466Z,20.90
2022-07-31T01:02:11.734Z,20.90
2022-07-31T01:04:40.228Z,20.90
2022-07-31T01:07:08.611Z,20.90
2022-07-31T01:09:35.689Z,20.90
2022-07-31T01:12:25.006Z,20.90
2022-07-31T01:15:02.035Z,20.80
2022-07-31T01:17:31.222Z,20.80
2022-07-31T01:19:58.867Z,20.80
2022-07-31T01:22:43.807Z,20.70
2022-07-31T01:25:48.397Z,20.50
2022-07-31T01:28:50.071Z,20.40
2022-07-31T01:31:27.229Z,20.40
2022-07-31T01:34:05.461Z,20.40
2022-07-31T01:36:35.050Z,20.40
2022-07-31T01:39:03.967Z,20.50
2022-07-31T01:41:37.883Z,20.50
2022-07-31T01:44:07.168Z,20.50
2022-07-31T01:46:37.361Z,20.50
2022-07-31T01:49:10.918Z,20.50
2022-07-31T01:51:40.933Z,20.50
2022-07-31T01:54:08.780Z,20.50
2022-07-31T01:56:37.681Z,20.50
2022-07-31T01:59:05.832Z,20.50
2022-07-31T02:02:10.012Z,20.50
2022-07-31T02:04:37.691Z,20.40
2022-07-31T02:07:05.637Z,20.40
2022-07-31T02:09:34.377Z,20.40
2022-07-31T02:12:01.762Z,20.40
2022-07-31T02:14:31.478Z,20.40
2022-07-31T02:16:59.433Z,20.40
2022-07-31T02:19:55.418Z,20.30
2022-07-31T02:22:27.325Z,20.20
2022-07-31T02:24:54.138Z,20.10
2022-07-31T02:27:56.241Z,20.10
2022-07-31T02:30:13.374Z,20.10
2022-07-31T02:32:42.272Z,20.10
2022-07-31T02:35:09.928Z,20.10
2022-07-31T02:37:38.637Z,20.10
2022-07-31T02:40:07.844Z,20.00
2022-07-31T02:42:35.832Z,20.00
2022-07-31T02:45:03.582Z,20.00
2022-07-31T02:47:33.056Z,20.00
2022-07-31T02:50:02.747Z,20.00
2022-07-31T02:52:30.612Z,20.00
2022-07-31T02:54:58.596Z,20.00
2022-07-31T02:57:25.973Z,19.90
2022-07-31T02:59:52.719Z,19.90
2022-07-31T03:02:21.260Z,19.90
2022-07-31T03:04:48.006Z,19.90
2022-07-31T03:07:17.352Z,19.80
2022-07-31T03:09:45.485Z,19.80
2022-07-31T03:12:50.995Z,19.80
2022-07-31T03:15:23.644Z,19.80
2022-07-31T03:17:51.283Z,19.70
2022-07-31T03:20:26.391Z,19.70
2022-07-31T03:22:53.642Z,19.70
2022-07-31T03:25:22.111Z,19.60
2022-07-31T03:27:56.252Z,19.60
2022-07-31T03:30:25.469Z,19.60
2022-07-31T03:32:56.696Z,19.50
2022-07-31T03:35:25.267Z,19.50
2022-07-31T03:37:52.436Z,19.50
2022-07-31T03:40:20.412Z,19.50
2022-07-31T03:42:49.617Z,19.50
2022-07-31T03:45:17.069Z,19.50
2022-07-31T03:47:44.081Z,19.50
2022-07-31T03:50:12.330Z,19.40
2022-07-31T03:52:39.857Z,19.40
2022-07-31T03:55:09.923Z,19.40
2022-07-31T03:57:38.685Z,19.50
2022-07-31T04:00:09.103Z,19.40
2022-07-31T04:02:44.853Z,19.40
2022-07-31T04:05:31.925Z,19.30
2022-07-31T04:07:59.655Z,19.30
2022-07-31T04:10:26.842Z,19.30
2022-07-31T04:12:54.487Z,19.30
2022-07-31T04:15:21.209Z,19.30
2022-07-31T04:17:47.965Z,19.30
2022-07-31T04:20:19.850Z,19.30
2022-07-31T04:22:46.643Z,19.30
2022-07-31T04:25:27.242Z,19.30
2022-07-31T04:28:29.651Z,19.20
2022-07-31T04:30:56.620Z,19.00
2022-07-31T04:33:23.345Z,18.90
2022-07-31T04:35:50.033Z,18.90
2022-07-31T04:38:17.036Z,18.80
2022-07-31T04:40:43.949Z,18.70
2022-07-31T04:43:10.973Z,18.60
2022-07-31T04:45:37.697Z,18.70
2022-07-31T04:48:05.316Z,18.70
2022-07-31T04:50:32.083Z,18.80
2022-07-31T04:52:58.862Z,18.80
2022-07-31T04:55:29.225Z,18.80
2022-07-31T04:57:55.998Z,18.90
2022-07-31T05:00:23.014Z,19.00
2022-07-31T05:02:49.853Z,19.00
2022-07-31T05:05:18.300Z,18.90
2022-07-31T05:07:45.517Z,18.90
2022-07-31T05:10:35.088Z,19.00
2022-07-31T05:13:03.692Z,19.10
2022-07-31T05:15:32.518Z,19.20
2022-07-31T05:17:59.309Z,19.20
2022-07-31T05:20:46.053Z,19.20
2022-07-31T05:23:31.170Z,19.40
2022-07-31T05:26:13.702Z,19.50
2022-07-31T05:28:41.248Z,19.60
2022-07-31T05:31:10.095Z,19.70
2022-07-31T05:33:38.380Z,19.80
2022-07-31T05:36:05.677Z,19.90
2022-07-31T05:38:32.516Z,20.00
2022-07-31T05:41:22.551Z,20.10
2022-07-31T05:44:21.774Z,20.10
2022-07-31T05:49:26.612Z,20.20
2022-07-31T05:51:56.545Z,20.20
2022-07-31T05:54:23.677Z,20.30
2022-07-31T05:57:09.246Z,20.40
2022-07-31T05:59:40.236Z,20.50
2022-07-31T06:02:07.785Z,20.50
2022-07-31T06:04:52.706Z,20.50
2022-07-31T06:07:19.457Z,20.60
2022-07-31T06:09:46.720Z,20.50
2022-07-31T06:12:15.844Z,20.50
2022-07-31T06:14:42.829Z,20.50
2022-07-31T06:17:13.615Z,20.60
2022-07-31T06:19:40.369Z,20.50
2022-07-31T06:22:07.428Z,20.50
2022-07-31T06:24:34.481Z,20.50
2022-07-31T06:27:02.200Z,20.60
2022-07-31T06:29:41.916Z,20.80
2022-07-31T06:32:09.838Z,21.00
2022-07-31T06:34:37.027Z,21.10
2022-07-31T06:37:04.233Z,21.00
2022-07-31T06:39:55.452Z,21.00
2022-07-31T06:42:36.069Z,21.00
2022-07-31T06:45:06.252Z,21.10
2022-07-31T06:47:51.554Z,21.10
2022-07-31T06:50:29.990Z,21.00
2022-07-31T06:53:15.162Z,21.00
2022-07-31T06:55:44.509Z,21.00
2022-07-31T06:58:11.781Z,21.20
2022-07-31T07:00:38.553Z,21.50
2022-07-31T07:03:05.322Z,21.80
2022-07-31T07:05:32.094Z,22.00
2022-07-31T07:08:00.961Z,22.20
2022-07-31T07:10:27.877Z,22.40
2022-07-31T07:13:14.542Z,22.50
2022-07-31T07:15:41.323Z,22.60
2022-07-31T07:18:08.112Z,22.80
2022-07-31T07:20:40.590Z,22.90
2022-07-31T07:23:07.760Z,23.00
2022-07-31T07:25:45.930Z,23.00
2022-07-31T07:28:30.517Z,23.10
2022-07-31T07:30:59.277Z,23.20
2022-07-31T07:33:40.562Z,23.30
2022-07-31T07:36:23.766Z,23.40
2022-07-31T07:39:01.019Z,23.40
2022-07-31T07:41:29.499Z,23.50
2022-07-31T07:43:56.941Z,23.50
2022-07-31T07:46:26.735Z,23.40
2022-07-31T07:48:57.244Z,23.50
2022-07-31T07:51:35.232Z,23.60
2022-07-31T07:54:25.193Z,23.70
2022-07-31T07:57:27.750Z,23.80
2022-07-31T08:00:13.908Z,23.80
2022-07-31T08:03:47.020Z,23.70
2022-07-31T08:05:39.392Z,23.70
2022-07-31T08:08:06.253Z,23.80
2022-07-31T08:10:53.034Z,23.70
2022-07-31T08:13:24.919Z,23.90
2022-07-31T08:16:11.621Z,24.00
2022-07-31T08:18:43.904Z,24.30
2022-07-31T08:21:11.829Z,24.30
2022-07-31T08:23:38.887Z,24.20
2022-07-31T08:26:08.378Z,24.40
2022-07-31T08:28:36.048Z,24.60
2022-07-31T08:31:03.605Z,24.60
2022-07-31T08:33:33.153Z,24.60
2022-07-31T08:36:00.822Z,24.80
2022-07-31T08:38:28.631Z,25.00
2022-07-31T08:41:33.713Z,25.20
2022-07-31T08:44:05.214Z,25.30
2022-07-31T08:46:41.797Z,25.50
2022-07-31T08:49:09.906Z,25.60
2022-07-31T08:51:51.100Z,25.60
2022-07-31T08:54:41.349Z,25.80
2022-07-31T08:57:12.731Z,25.90
2022-07-31T08:59:41.816Z,26.00
2022-07-31T09:02:09.667Z,26.10
2022-07-31T09:04:41.096Z,26.10
2022-07-31T09:07:14.550Z,26.20
2022-07-31T09:09:51.527Z,26.40
2022-07-31T09:12:34.517Z,26.50
2022-07-31T09:15:04.570Z,26.70
2022-07-31T09:17:34.291Z,26.50
2022-07-31T09:20:01.584Z,26.50
2022-07-31T09:22:33.836Z,26.40
2022-07-31T09:25:21.733Z,26.50
2022-07-31T09:27:48.777Z,26.70
2022-07-31T09:30:16.783Z,26.90
2022-07-31T09:33:17.290Z,27.00
2022-07-31T09:36:02.878Z,26.90
2022-07-31T09:38:41.171Z,26.90
2022-07-31T09:41:57.874Z,27.00
2022-07-31T09:44:43.567Z,27.00
2022-07-31T09:47:24.789Z,27.10
2022-07-31T09:49:58.230Z,27.10
2022-07-31T09:52:27.477Z,27.20
2022-07-31T09:55:16.313Z,27.30
2022-07-31T09:58:00.305Z,27.50
2022-07-31T10:00:38.937Z,27.80
2022-07-31T10:03:07.024Z,28.10
2022-07-31T10:05:34.996Z,28.40
2022-07-31T10:08:03.219Z,28.50
2022-07-31T10:10:49.847Z,28.50
2022-07-31T10:13:33.178Z,28.80
2022-07-31T10:16:02.290Z,29.00
2022-07-31T10:18:49.760Z,29.10
2022-07-31T10:21:41.502Z,29.10
2022-07-31T10:24:25.985Z,29.20
2022-07-31T10:27:01.501Z,29.40
2022-07-31T10:29:40.451Z,29.50
2022-07-31T10:32:08.681Z,29.50
2022-07-31T10:34:41.307Z,29.50
2022-07-31T10:37:35.053Z,29.60
2022-07-31T10:40:26.878Z,29.70
2022-07-31T10:43:20.164Z,29.90
2022-07-31T10:46:04.370Z,30.00
2022-07-31T10:48:53.288Z,30.10
2022-07-31T10:51:51.932Z,30.30
2022-07-31T10:54:43.612Z,30.40
2022-07-31T10:57:34.983Z,30.40
2022-07-31T11:00:40.955Z,30.50
2022-07-31T11:03:26.290Z,30.70
2022-07-31T11:06:14.033Z,30.90
2022-07-31T11:08:58.306Z,30.90
2022-07-31T11:11:45.481Z,31.00
2022-07-31T11:14:40.911Z,30.90
2022-07-31T11:18:23.780Z,31.00
2022-07-31T11:20:28.788Z,31.20
2022-07-31T11:23:04.720Z,31.20
2022-07-31T11:25:36.326Z,31.10
2022-07-31T11:28:24.733Z,31.00
2022-07-31T11:30:54.101Z,30.90
2022-07-31T11:33:42.081Z,30.80
2022-07-31T11:36:20.022Z,30.70
2022-07-31T11:38:52.131Z,30.40
2022-07-31T11:41:29.849Z,30.40
2022-07-31T11:44:05.147Z,30.50
2022-07-31T11:46:33.619Z,30.70
2022-07-31T11:49:01.940Z,30.80
2022-07-31T11:51:29.571Z,31.00
2022-07-31T11:53:57.913Z,31.20
2022-07-31T11:56:26.667Z,31.40
2022-07-31T11:58:56.511Z,31.50
2022-07-31T12:01:28.167Z,31.70
2022-07-31T12:03:56.639Z,31.90
2022-07-31T12:06:23.634Z,32.00
2022-07-31T12:08:52.288Z,32.20
2022-07-31T12:11:20.823Z,32.10
2022-07-31T12:13:50.821Z,32.00
2022-07-31T12:16:21.170Z,32.00
2022-07-31T12:18:56.986Z,31.60
2022-07-31T12:21:33.260Z,31.20
2022-07-31T12:24:00.710Z,31.10
2022-07-31T12:26:28.700Z,31.20
2022-07-31T12:29:10.175Z,31.40
2022-07-31T12:31:44.625Z,31.50
2022-07-31T12:34:11.703Z,31.60
2022-07-31T12:36:38.455Z,31.90
2022-07-31T12:39:05.505Z,32.20
2022-07-31T12:41:43.173Z,32.30
2022-07-31T12:44:13.249Z,32.40
2022-07-31T12:46:41.324Z,32.40
2022-07-31T12:49:11.202Z,32.60
2022-07-31T12:51:44.107Z,32.70
2022-07-31T12:54:14.053Z,32.70
2022-07-31T12:56:41.686Z,32.60
2022-07-31T12:59:09.244Z,33.00
2022-07-31T13:01:36.836Z,33.20
2022-07-31T13:04:05.984Z,33.40
2022-07-31T13:06:36.082Z,33.40
2022-07-31T13:09:02.956Z,33.70
2022-07-31T13:11:46.680Z,33.80
2022-07-31T13:14:20.347Z,33.70
2022-07-31T13:16:48.379Z,33.60
2022-07-31T13:19:16.267Z,33.60
2022-07-31T13:21:49.463Z,33.60
2022-07-31T13:24:20.703Z,33.50
2022-07-31T13:26:48.609Z,33.40
2022-07-31T13:29:15.637Z,33.20
2022-07-31T13:31:42.485Z,33.20
2022-07-31T13:34:09.321Z,33.20
2022-07-31T13:36:39.324Z,33.30
2022-07-31T13:39:10.710Z,33.40
2022-07-31T13:41:39.023Z,33.50
2022-07-31T13:44:07.145Z,33.70
2022-07-31T13:46:34.068Z,33.80
2022-07-31T13:49:01.873Z,33.90
2022-07-31T13:51:29.964Z,33.90
2022-07-31T13:53:56.956Z,34.00
2022-07-31T13:56:37.497Z,34.10
2022-07-31T13:59:11.320Z,34.10
2022-07-31T14:02:03.849Z,34.00
2022-07-31T14:04:31.289Z,34.00
2022-07-31T14:07:03.464Z,33.70
2022-07-31T14:09:34.018Z,33.40
2022-07-31T14:12:03.843Z,33.50
2022-07-31T14:14:31.789Z,33.60
2022-07-31T14:16:58.546Z,33.70
2022-07-31T14:19:25.293Z,33.60
2022-07-31T14:22:11.384Z,33.50
2022-07-31T14:24:38.338Z,33.40
2022-07-31T14:27:05.040Z,33.40
2022-07-31T14:29:31.923Z,33.40
2022-07-31T14:32:03.254Z,33.20
2022-07-31T14:34:35.394Z,33.00
2022-07-31T14:37:03.208Z,32.70
2022-07-31T14:39:30.429Z,32.30
2022-07-31T14:41:57.179Z,32.20
2022-07-31T14:44:28.548Z,32.30
2022-07-31T14:46:56.052Z,32.30
2022-07-31T14:49:22.896Z,32.20
2022-07-31T14:51:49.639Z,32.10
2022-07-31T14:54:16.404Z,32.00
2022-07-31T14:57:00.758Z,32.00
2022-07-31T14:59:31.727Z,32.00
2022-07-31T15:01:59.078Z,31.90
2022-07-31T15:04:25.970Z,31.80
2022-07-31T15:07:07.711Z,31.80
2022-07-31T15:09:39.854Z,31.90
2022-07-31T15:12:07.066Z,32.00
2022-07-31T15:14:34.458Z,32.10
2022-07-31T15:17:01.382Z,32.30
2022-07-31T15:19:28.091Z,32.30
2022-07-31T15:22:09.968Z,32.40
2022-07-31T15:24:48.296Z,32.40
2022-07-31T15:27:18.057Z,32.40
2022-07-31T15:30:04.353Z,32.40
2022-07-31T15:32:31.881Z,32.30
2022-07-31T15:34:58.682Z,32.20
2022-07-31T15:37:25.555Z,32.00
2022-07-31T15:40:02.367Z,31.90
2022-07-31T15:42:34.232Z,31.90
2022-07-31T15:45:01.046Z,31.90
2022-07-31T15:47:27.949Z,32.00
2022-07-31T15:49:55.068Z,32.00
2022-07-31T15:52:21.843Z,32.10
2022-07-31T15:54:51.512Z,32.00
2022-07-31T15:57:20.918Z,32.10
2022-07-31T15:59:48.398Z,32.10
2022-07-31T16:02:15.414Z,32.00
2022-07-31T16:04:52.886Z,32.00
2022-07-31T16:08:32.496Z,32.00
2022-07-31T16:10:15.751Z,32.00
2022-07-31T16:12:47.088Z,32.00
2022-07-31T16:15:14.816Z,32.10
2022-07-31T16:17:43.131Z,32.10
2022-07-31T16:20:12.377Z,32.10
2022-07-31T16:22:42.181Z,32.10
2022-07-31T16:25:10.241Z,32.00
2022-07-31T16:27:37.889Z,32.00
2022-07-31T16:30:06.396Z,32.00
2022-07-31T16:32:33.709Z,32.00
2022-07-31T16:35:01.565Z,31.80
2022-07-31T16:37:50.009Z,31.80
2022-07-31T16:40:27.036Z,31.70
2022-07-31T16:43:00.946Z,31.80
2022-07-31T16:45:28.609Z,31.80
2022-07-31T16:47:55.439Z,31.90
2022-07-31T16:50:22.684Z,31.90
2022-07-31T16:52:54.178Z,32.10
2022-07-31T16:55:51.670Z,32.00
2022-07-31T16:58:11.232Z,31.90
2022-07-31T17:00:39.395Z,31.90
2022-07-31T17:03:06.405Z,31.90
2022-07-31T17:05:33.199Z,31.90
2022-07-31T17:07:59.914Z,32.00
2022-07-31T17:10:27.069Z,32.00
2022-07-31T17:12:54.515Z,32.00
2022-07-31T17:15:21.723Z,31.90
2022-07-31T17:17:48.460Z,31.80
2022-07-31T17:20:18.306Z,31.70
2022-07-31T17:22:45.974Z,31.60
2022-07-31T17:25:20.835Z,31.60
2022-07-31T17:27:47.769Z,31.60
2022-07-31T17:30:15.520Z,31.50
2022-07-31T17:32:42.558Z,31.50
2022-07-31T17:35:09.815Z,31.50
2022-07-31T17:37:40.582Z,31.60
2022-07-31T17:40:27.051Z,31.60
2022-07-31T17:42:54.784Z,31.50
2022-07-31T17:45:21.598Z,31.50
2022-07-31T17:47:48.990Z,31.50
2022-07-31T17:50:30.645Z,31.50
2022-07-31T17:52:57.398Z,31.50
2022-07-31T17:55:24.072Z,31.40
2022-07-31T17:57:50.829Z,31.30
2022-07-31T18:00:19.382Z,31.30
2022-07-31T18:02:46.166Z,31.20
2022-07-31T18:05:12.958Z,31.10
2022-07-31T18:07:39.802Z,31.10
2022-07-31T18:10:11.972Z,31.00
2022-07-31T18:12:57.562Z,30.90
2022-07-31T18:15:34.843Z,30.80
2022-07-31T18:18:02.937Z,30.70
2022-07-31T18:20:29.739Z,30.60
2022-07-31T18:22:56.490Z,30.60
2022-07-31T18:25:23.384Z,30.50
2022-07-31T18:27:52.286Z,30.40
2022-07-31T18:30:19.011Z,30.40
2022-07-31T18:32:45.734Z,30.40
2022-07-31T18:35:12.918Z,30.30
2022-07-31T18:37:39.688Z,30.10
2022-07-31T18:40:07.224Z,29.80
2022-07-31T18:42:34.021Z,29.70
2022-07-31T18:45:00.747Z,29.60
2022-07-31T18:47:27.679Z,29.40
2022-07-31T18:50:59.862Z,29.30
2022-07-31T18:52:41.235Z,29.20
2022-07-31T18:55:09.364Z,29.10
2022-07-31T18:57:36.166Z,29.00
2022-07-31T19:00:05.084Z,28.90
2022-07-31T19:02:32.005Z,28.80
2022-07-31T19:04:58.742Z,28.70
2022-07-31T19:07:27.368Z,28.50
2022-07-31T19:09:54.251Z,28.40
2022-07-31T19:12:20.950Z,28.30
2022-07-31T19:14:47.777Z,28.20
2022-07-31T19:17:18.458Z,28.20
2022-07-31T19:19:54.628Z,28.10
2022-07-31T19:22:22.238Z,28.00
2022-07-31T19:24:49.485Z,27.80
2022-07-31T19:27:16.547Z,27.70
2022-07-31T19:29:43.410Z,27.70
2022-07-31T19:32:11.451Z,27.60
2022-07-31T19:34:38.631Z,27.60
2022-07-31T19:37:10.284Z,27.60
2022-07-31T19:39:37.433Z,27.60
2022-07-31T19:42:10.785Z,27.60
2022-07-31T19:44:38.005Z,27.60
2022-07-31T19:47:06.227Z,27.50
2022-07-31T19:49:36.576Z,27.50
2022-07-31T19:52:06.008Z,27.40
2022-07-31T19:54:33.115Z,27.30
2022-07-31T19:56:59.922Z,27.10
2022-07-31T19:59:26.748Z,27.00
2022-07-31T20:01:53.445Z,26.90
2022-07-31T20:04:20.188Z,26.90
2022-07-31T20:06:46.928Z,26.80
2022-07-31T20:09:13.771Z,26.70
2022-07-31T20:11:40.535Z,26.70
2022-07-31T20:14:07.340Z,26.70
2022-07-31T20:16:34.271Z,26.60
2022-07-31T20:19:01.301Z,26.60
2022-07-31T20:21:35.087Z,26.60
2022-07-31T20:24:02.846Z,26.60
2022-07-31T20:26:31.512Z,26.50
2022-07-31T20:28:58.198Z,26.50
2022-07-31T20:31:24.948Z,26.50
2022-07-31T20:33:57.712Z,26.40
2022-07-31T20:36:26.251Z,26.30
2022-07-31T20:38:53.517Z,26.30
2022-07-31T20:41:20.533Z,26.10
2022-07-31T20:43:47.456Z,26.10
2022-07-31T20:46:15.804Z,26.10
2022-07-31T20:48:44.475Z,26.00
2022-07-31T20:51:19.057Z,26.00
2022-07-31T20:53:46.552Z,25.90
2022-07-31T20:56:13.827Z,25.90
2022-07-31T20:58:41.443Z,25.80
2022-07-31T21:01:08.556Z,25.70
2022-07-31T21:03:35.685Z,25.60
2022-07-31T21:06:03.133Z,25.50
2022-07-31T21:08:29.920Z,25.50
2022-07-31T21:10:56.914Z,25.50
2022-07-31T21:13:27.912Z,25.40
2022-07-31T21:15:54.818Z,25.40
2022-07-31T21:18:21.776Z,25.30
2022-07-31T21:20:53.227Z,25.30
2022-07-31T21:23:22.563Z,25.20
2022-07-31T21:25:50.210Z,25.20
2022-07-31T21:28:17.484Z,25.20
2022-07-31T21:30:44.416Z,25.00
2022-07-31T21:33:11.479Z,24.70
2022-07-31T21:35:39.891Z,24.60
2022-07-31T21:38:10.405Z,24.60
2022-07-31T21:40:40.036Z,24.60
2022-07-31T21:43:09.536Z,24.50
2022-07-31T21:45:43.423Z,24.40
2022-07-31T21:48:19.243Z,24.30
2022-07-31T21:50:46.531Z,24.30
2022-07-31T21:53:13.883Z,24.20
2022-07-31T21:55:40.859Z,24.10
2022-07-31T21:58:08.927Z,24.10
2022-07-31T22:00:36.062Z,24.10
2022-07-31T22:03:03.653Z,24.10
2022-07-31T22:05:49.391Z,24.00
2022-07-31T22:08:16.511Z,23.90
2022-07-31T22:10:43.410Z,23.70
2022-07-31T22:13:10.422Z,23.70
2022-07-31T22:15:52.733Z,23.70
2022-07-31T22:18:26.505Z,23.70
2022-07-31T22:20:54.299Z,23.70
2022-07-31T22:23:21.187Z,23.60
2022-07-31T22:25:51.099Z,23.70
2022-07-31T22:28:19.860Z,23.60
2022-07-31T22:30:47.511Z,23.60
2022-07-31T22:33:14.600Z,23.50
2022-07-31T22:35:41.547Z,23.50
2022-07-31T22:38:09.182Z,23.50
2022-07-31T22:40:35.972Z,23.50
2022-07-31T22:43:03.620Z,23.50
2022-07-31T22:45:30.800Z,23.50
2022-07-31T22:47:58.476Z,23.50
2022-07-31T22:50:25.552Z,23.40
2022-07-31T22:52:53.128Z,23.40
2022-07-31T22:55:20.066Z,23.30
2022-07-31T22:57:46.884Z,23.40
2022-07-31T23:00:15.032Z,23.40
2022-07-31T23:02:42.755Z,23.40
2022-07-31T23:05:10.283Z,23.50
2022-07-31T23:07:37.367Z,23.50
2022-07-31T23:10:07.763Z,23.50
2022-07-31T23:12:34.580Z,23.50
2022-07-31T23:15:01.272Z,23.50
2022-07-31T23:17:28.042Z,23.50
2022-07-31T23:19:55.040Z,23.50
2022-07-31T23:22:33.434Z,23.50
2022-07-31T23:25:03.364Z,23.50
2022-07-31T23:27:30.200Z,23.50
2022-07-31T23:29:58.601Z,23.40
2022-07-31T23:32:26.325Z,23.30
2022-07-31T23:34:53.270Z,23.20
2022-07-31T23:37:20.395Z,23.20
2022-07-31T23:39:47.216Z,23.10
2022-07-31T23:42:52.469Z,23.00
2022-07-31T23:45:19.421Z,22.90
2022-07-31T23:47:48.220Z,22.90
2022-07-31T23:50:16.454Z,22.80
2022-07-31T23:52:43.955Z,22.80
2022-07-31T23:55:12.941Z,22.80
2022-07-31T23:57:40.240Z,22.80
